Currently 45°F in Riverside (Presidential Park), California, USA
45°F
55°F / 45°F
calm
0.00"
Wednesday, February 8, 2023 5:22 AM PST

Riverside (Presidential Park), California Weather Summary
Last 36 Hours

Temperature Winds Hourly Humidity Dewpoint
Time Report Norm Report Norm Max Gusts Precip. Rpt. Norm Rpt. Norm Pressure
1Wed 05:22 AM  45.3°F  49°F  calm  1 mph  3 mph  0.00"  56%  71%  30°F  39°F  30.20"
3Wed 05:19 AM  45.1°F  49°F  calm  1 mph  3 mph  ----  56%  70%  29°F  39°F  30.20"
Wed 05:00 AM  45.8°F  49°F  calm  1 mph  4 mph  0.00"  54%  71%  30°F  40°F  30.20"
Wed 04:00 AM  48.0°F  50°F  calm  1 mph  4 mph  0.00"  51%  70%  30°F  40°F  30.20"
Wed 03:00 AM  51.1°F  50°F  calm  1 mph  5 mph  0.00"  43%  69%  29°F  40°F  30.20"
Wed 02:00 AM  53.4°F  51°F  2 mph NE  1 mph  8 mph  0.00"  37%  69%  27°F  41°F  30.21"
Wed 01:00 AM  53.8°F  52°F  4 mph E  1 mph  6 mph  0.00"  39%  67%  29°F  41°F  30.22"
2Wed 12:09 AM  54.9°F  53°F  calm  1 mph  5 mph  ----  38%  66%  28°F  41°F  30.23"
Wed 12:00 AM  54.6°F  53°F  calm  2 mph  7 mph  0.00"  38%  66%  28°F  41°F  30.23"
Tue 11:00 PM  54.1°F  54°F  calm  1 mph  5 mph  0.00"  40%  64%  29°F  42°F  30.22"
Tue 10:00 PM  52.6°F  55°F  3 mph E  2 mph  5 mph  0.00"  44%  62%  31°F  42°F  30.21"
Tue 09:00 PM  52.9°F  57°F  2 mph SE  2 mph  5 mph  0.00"  46%  59%  32°F  42°F  30.21"
Tue 08:00 PM  56.1°F  59°F  3 mph E  2 mph  5 mph  0.00"  37%  55%  29°F  42°F  30.19"
Tue 07:00 PM  61.5°F  61°F  calm  2 mph  6 mph  0.00"  26%  51%  25°F  42°F  30.19"
Tue 06:00 PM  64.5°F  64°F  1 mph NW  3 mph  14 mph  0.00"  23%  45%  24°F  42°F  30.19"
Tue 05:00 PM  67.2°F  68°F  5 mph W  5 mph  17 mph  0.00"  20%  39%  23°F  41°F  30.18"
Tue 04:00 PM  68.3°F  69°F  8 mph W  6 mph  19 mph  0.00"  18%  36%  22°F  40°F  30.18"
Tue 03:00 PM  68.7°F  69°F  9 mph W  6 mph  22 mph  0.00"  18%  36%  22°F  40°F  30.19"
Tue 02:00 PM  68.7°F  69°F  12 mph NW  5 mph  28 mph  0.00"  18%  36%  22°F  40°F  30.19"
Tue 01:00 PM  67.4°F  69°F  7 mph W  5 mph  26 mph  0.00"  19%  37%  22°F  40°F  30.21"
Tue 12:00 PM  66.7°F  67°F  13 mph W  4 mph  22 mph  0.00"  19%  40%  22°F  41°F  30.24"
Tue 11:00 AM  64.8°F  64°F  4 mph W  4 mph  11 mph  0.00"  24%  46%  25°F  42°F  30.27"
Tue 10:00 AM  63.0°F  61°F  4 mph NE  2 mph  9 mph  0.00"  27%  53%  27°F  43°F  30.28"
Tue 09:00 AM  60.3°F  56°F  4 mph NE  2 mph  12 mph  0.00"  31%  62%  28°F  43°F  30.28"
Tue 08:00 AM  57.2°F  50°F  4 mph E  2 mph  14 mph  0.00"  32%  71%  26°F  41°F  30.29"
Tue 07:00 AM  53.4°F  48°F  3 mph NE  1 mph  9 mph  0.00"  35%  72%  25°F  39°F  30.27"
Tue 06:00 AM  54.8°F  49°F  5 mph NE  1 mph  15 mph  0.00"  33%  71%  25°F  39°F  30.25"
Tue 05:00 AM  55.7°F  49°F  3 mph E  1 mph  13 mph  0.00"  33%  71%  26°F  39°F  30.22"
Tue 04:00 AM  52.6°F  50°F  3 mph W  1 mph  11 mph  0.00"  39%  70%  27°F  40°F  30.22"
Tue 03:00 AM  50.5°F  50°F  5 mph SE  1 mph  7 mph  0.00"  43%  70%  28°F  40°F  30.22"
Tue 02:00 AM  50.1°F  51°F  1 mph SE  1 mph  7 mph  0.00"  41%  69%  26°F  41°F  30.22"
Tue 01:00 AM  55.8°F  52°F  3 mph NE  1 mph  13 mph  0.00"  31%  68%  24°F  41°F  30.21"
Tue 12:00 AM  61.2°F  52°F  7 mph NW  1 mph  18 mph  0.00"  24%  67%  23°F  41°F  30.20"
Mon 11:00 PM  60.1°F  53°F  5 mph SW  1 mph  17 mph  0.00"  24%  65%  22°F  42°F  30.19"
Mon 10:00 PM  56.8°F  55°F  2 mph W  1 mph  13 mph  0.00"  29%  63%  24°F  42°F  30.18"
Mon 09:00 PM  54.3°F  56°F  3 mph NW  2 mph  5 mph  0.00"  32%  60%  24°F  42°F  30.16"
Mon 08:00 PM  61.0°F  58°F  2 mph W  2 mph  15 mph  0.00"  21%  56%  19°F  42°F  30.16"
Mon 07:00 PM  63.3°F  61°F  6 mph NW  2 mph  18 mph  0.00"  18%  52%  18°F  42°F  30.15"
Mon 06:00 PM  63.0°F  64°F  5 mph W  3 mph  15 mph  0.00"  18%  46%  17°F  42°F  30.14"

  1. Current weather data. No green row appears if the current weather data is also the high or low for the current day.
  2. High temperature for the current day.
  3. Low temperature for the current day.

The Riverside (Presidential Park), California weather pages are a service of WeatherCurrents.
Copyright ©2023  WeatherCurrents. All rights reserved. - Submit questions and comments - Privacy Policy

This page automatically refreshes every 10 minutes.